sensor_id;sensor_type;location;lat;lon;timestamp;pressure;altitude;pressure_sealevel;temperature;humidity
15634;BME280;14654;48.898;8.308;2023-05-31T00:00:07;100585.69;;;16.59;61.88
15634;BME280;14654;48.898;8.308;2023-05-31T00:02:32;100587.53;;;16.55;62.33
15634;BME280;14654;48.898;8.308;2023-05-31T00:04:57;100579.09;;;16.47;62.83
15634;BME280;14654;48.898;8.308;2023-05-31T00:07:23;100577.25;;;16.49;63.05
15634;BME280;14654;48.898;8.308;2023-05-31T00:09:48;100573.88;;;16.47;62.76
15634;BME280;14654;48.898;8.308;2023-05-31T00:12:13;100576.59;;;16.42;63.07
15634;BME280;14654;48.898;8.308;2023-05-31T00:14:39;100581.03;;;16.40;63.10
15634;BME280;14654;48.898;8.308;2023-05-31T00:17:04;100576.84;;;16.33;63.22
15634;BME280;14654;48.898;8.308;2023-05-31T00:19:30;100570.06;;;16.27;63.39
15634;BME280;14654;48.898;8.308;2023-05-31T00:21:55;100571.78;;;16.28;63.26
15634;BME280;14654;48.898;8.308;2023-05-31T00:24:21;100574.31;;;16.30;63.42
15634;BME280;14654;48.898;8.308;2023-05-31T00:26:46;100574.50;;;16.24;63.56
15634;BME280;14654;48.898;8.308;2023-05-31T00:29:12;100572.88;;;16.20;63.89
15634;BME280;14654;48.898;8.308;2023-05-31T00:31:37;100576.53;;;16.14;64.18
15634;BME280;14654;48.898;8.308;2023-05-31T00:34:02;100581.66;;;16.17;64.17
15634;BME280;14654;48.898;8.308;2023-05-31T00:36:27;100581.75;;;16.14;64.16
15634;BME280;14654;48.898;8.308;2023-05-31T00:38:53;100576.59;;;16.11;64.50
15634;BME280;14654;48.898;8.308;2023-05-31T00:41:18;100587.19;;;16.05;64.63
15634;BME280;14654;48.898;8.308;2023-05-31T00:43:43;100582.84;;;16.05;64.67
15634;BME280;14654;48.898;8.308;2023-05-31T00:46:17;100581.19;;;16.03;64.75
15634;BME280;14654;48.898;8.308;2023-05-31T00:48:48;100580.38;;;15.99;65.16
15634;BME280;14654;48.898;8.308;2023-05-31T00:51:13;100587.50;;;15.94;65.43
15634;BME280;14654;48.898;8.308;2023-05-31T00:53:39;100581.41;;;15.93;66.08
15634;BME280;14654;48.898;8.308;2023-05-31T00:56:05;100577.06;;;15.94;65.46
15634;BME280;14654;48.898;8.308;2023-05-31T00:58:30;100581.59;;;15.87;66.01
15634;BME280;14654;48.898;8.308;2023-05-31T01:01:00;100578.09;;;15.87;66.08
15634;BME280;14654;48.898;8.308;2023-05-31T01:03:25;100574.66;;;15.84;65.77
15634;BME280;14654;48.898;8.308;2023-05-31T01:05:51;100579.69;;;15.92;65.77
15634;BME280;14654;48.898;8.308;2023-05-31T01:08:16;100576.19;;;15.93;65.34
15634;BME280;14654;48.898;8.308;2023-05-31T01:10:42;100576.31;;;15.89;65.56
15634;BME280;14654;48.898;8.308;2023-05-31T01:13:21;100576.31;;;15.89;65.80
15634;BME280;14654;48.898;8.308;2023-05-31T01:15:56;100577.75;;;16.00;65.01
15634;BME280;14654;48.898;8.308;2023-05-31T01:18:27;100574.41;;;15.95;65.17
15634;BME280;14654;48.898;8.308;2023-05-31T01:20:58;100575.25;;;15.96;64.98
15634;BME280;14654;48.898;8.308;2023-05-31T01:23:32;100571.03;;;15.90;65.12
15634;BME280;14654;48.898;8.308;2023-05-31T01:28:42;100570.16;;;15.91;65.19
15634;BME280;14654;48.898;8.308;2023-05-31T01:31:14;100576.41;;;15.85;65.11
15634;BME280;14654;48.898;8.308;2023-05-31T01:33:41;100570.19;;;15.90;65.11
15634;BME280;14654;48.898;8.308;2023-05-31T01:36:07;100577.38;;;15.80;65.74
15634;BME280;14654;48.898;8.308;2023-05-31T01:38:33;100579.03;;;15.82;65.65
15634;BME280;14654;48.898;8.308;2023-05-31T01:40:58;100585.34;;;15.75;65.83
15634;BME280;14654;48.898;8.308;2023-05-31T01:43:25;100591.44;;;15.74;65.93
15634;BME280;14654;48.898;8.308;2023-05-31T01:45:53;100597.69;;;15.68;66.32
15634;BME280;14654;48.898;8.308;2023-05-31T01:48:19;100593.44;;;15.64;66.13
15634;BME280;14654;48.898;8.308;2023-05-31T01:50:44;100595.28;;;15.59;66.28
15634;BME280;14654;48.898;8.308;2023-05-31T01:53:10;100588.34;;;15.60;66.47
15634;BME280;14654;48.898;8.308;2023-05-31T01:55:36;100588.53;;;15.52;67.01
15634;BME280;14654;48.898;8.308;2023-05-31T01:58:02;100584.25;;;15.49;67.20
15634;BME280;14654;48.898;8.308;2023-05-31T02:00:28;100579.06;;;15.48;67.30
15634;BME280;14654;48.898;8.308;2023-05-31T02:02:54;100583.50;;;15.44;67.32
15634;BME280;14654;48.898;8.308;2023-05-31T02:05:20;100581.00;;;15.39;67.70
15634;BME280;14654;48.898;8.308;2023-05-31T02:07:46;100580.13;;;15.39;67.59
15634;BME280;14654;48.898;8.308;2023-05-31T02:10:13;100575.09;;;15.33;67.63
15634;BME280;14654;48.898;8.308;2023-05-31T02:12:39;100583.00;;;15.28;67.97
15634;BME280;14654;48.898;8.308;2023-05-31T02:15:06;100577.88;;;15.25;67.94
15634;BME280;14654;48.898;8.308;2023-05-31T02:17:37;100577.94;;;15.22;68.40
15634;BME280;14654;48.898;8.308;2023-05-31T02:20:07;100581.50;;;15.19;68.40
15634;BME280;14654;48.898;8.308;2023-05-31T02:22:34;100580.72;;;15.14;68.55
15634;BME280;14654;48.898;8.308;2023-05-31T02:24:59;100573.03;;;15.08;68.82
15634;BME280;14654;48.898;8.308;2023-05-31T02:27:24;100577.34;;;15.09;68.88
15634;BME280;14654;48.898;8.308;2023-05-31T02:29:50;100579.94;;;15.11;68.48
15634;BME280;14654;48.898;8.308;2023-05-31T02:32:15;100580.91;;;15.06;69.28
15634;BME280;14654;48.898;8.308;2023-05-31T02:34:40;100579.25;;;15.02;68.96
15634;BME280;14654;48.898;8.308;2023-05-31T02:37:07;100583.56;;;15.03;69.02
15634;BME280;14654;48.898;8.308;2023-05-31T02:39:32;100578.53;;;14.96;69.50
15634;BME280;14654;48.898;8.308;2023-05-31T02:41:57;100581.25;;;14.91;69.45
15634;BME280;14654;48.898;8.308;2023-05-31T02:44:23;100587.53;;;14.82;69.33
15634;BME280;14654;48.898;8.308;2023-05-31T02:46:48;100578.78;;;14.85;69.49
15634;BME280;14654;48.898;8.308;2023-05-31T02:49:13;100588.31;;;14.86;69.75
15634;BME280;14654;48.898;8.308;2023-05-31T02:51:39;100586.75;;;14.78;69.74
15634;BME280;14654;48.898;8.308;2023-05-31T02:54:04;100582.34;;;14.81;70.06
15634;BME280;14654;48.898;8.308;2023-05-31T02:56:29;100585.13;;;14.73;70.12
15634;BME280;14654;48.898;8.308;2023-05-31T02:58:55;100585.13;;;14.73;70.13
15634;BME280;14654;48.898;8.308;2023-05-31T03:01:21;100588.63;;;14.72;70.42
15634;BME280;14654;48.898;8.308;2023-05-31T03:03:46;100589.47;;;14.72;69.75
15634;BME280;14654;48.898;8.308;2023-05-31T03:06:12;100599.88;;;14.74;69.80
15634;BME280;14654;48.898;8.308;2023-05-31T03:08:39;100599.69;;;14.82;69.33
15634;BME280;14654;48.898;8.308;2023-05-31T03:11:04;100608.47;;;14.76;69.99
15634;BME280;14654;48.898;8.308;2023-05-31T03:13:30;100596.34;;;14.75;70.09
15634;BME280;14654;48.898;8.308;2023-05-31T03:15:55;100605.22;;;14.64;70.66
15634;BME280;14654;48.898;8.308;2023-05-31T03:18:20;100612.94;;;14.71;70.58
15634;BME280;14654;48.898;8.308;2023-05-31T03:20:45;100605.03;;;14.75;70.40
15634;BME280;14654;48.898;8.308;2023-05-31T03:23:11;100610.34;;;14.71;70.33
15634;BME280;14654;48.898;8.308;2023-05-31T03:25:36;100604.34;;;14.66;70.68
15634;BME280;14654;48.898;8.308;2023-05-31T03:28:02;100615.63;;;14.66;71.05
15634;BME280;14654;48.898;8.308;2023-05-31T03:30:29;100615.63;;;14.64;70.98
15634;BME280;14654;48.898;8.308;2023-05-31T03:32:54;100621.69;;;14.67;70.86
15634;BME280;14654;48.898;8.308;2023-05-31T03:35:20;100615.63;;;14.66;70.43
15634;BME280;14654;48.898;8.308;2023-05-31T03:37:45;100624.94;;;14.80;70.44
15634;BME280;14654;48.898;8.308;2023-05-31T03:40:11;100610.28;;;14.74;70.63
15634;BME280;14654;48.898;8.308;2023-05-31T03:42:36;100619.78;;;14.76;70.27
15634;BME280;14654;48.898;8.308;2023-05-31T03:45:03;100619.47;;;14.90;69.66
15634;BME280;14654;48.898;8.308;2023-05-31T03:47:28;100618.63;;;14.90;70.58
15634;BME280;14654;48.898;8.308;2023-05-31T03:49:53;100610.81;;;14.90;70.24
15634;BME280;14654;48.898;8.308;2023-05-31T03:52:19;100621.28;;;14.88;69.63
15634;BME280;14654;48.898;8.308;2023-05-31T03:54:44;100618.50;;;14.94;69.93
15634;BME280;14654;48.898;8.308;2023-05-31T03:57:12;100627.09;;;15.00;69.79
15634;BME280;14654;48.898;8.308;2023-05-31T03:59:37;100631.44;;;14.99;69.95
15634;BME280;14654;48.898;8.308;2023-05-31T04:02:02;100629.66;;;15.03;69.52
15634;BME280;14654;48.898;8.308;2023-05-31T04:04:28;100614.00;;;15.03;69.71
15634;BME280;14654;48.898;8.308;2023-05-31T04:06:53;100624.44;;;15.03;69.52
15634;BME280;14654;48.898;8.308;2023-05-31T04:09:19;100630.53;;;15.02;70.00
15634;BME280;14654;48.898;8.308;2023-05-31T04:11:45;100627.88;;;15.05;69.53
15634;BME280;14654;48.898;8.308;2023-05-31T04:14:10;100641.78;;;15.04;69.79
15634;BME280;14654;48.898;8.308;2023-05-31T04:16:36;100638.31;;;15.03;70.06
15634;BME280;14654;48.898;8.308;2023-05-31T04:19:01;100648.72;;;15.03;69.92
15634;BME280;14654;48.898;8.308;2023-05-31T04:21:26;100641.69;;;15.08;69.25
15634;BME280;14654;48.898;8.308;2023-05-31T04:23:52;100638.03;;;15.16;69.27
15634;BME280;14654;48.898;8.308;2023-05-31T04:26:17;100644.66;;;15.31;68.91
15634;BME280;14654;48.898;8.308;2023-05-31T04:28:43;100649.69;;;15.38;68.67
15634;BME280;14654;48.898;8.308;2023-05-31T04:31:09;100646.75;;;15.52;68.92
15634;BME280;14654;48.898;8.308;2023-05-31T04:33:35;100649.00;;;15.68;68.70
15634;BME280;14654;48.898;8.308;2023-05-31T04:36:01;100643.34;;;15.88;68.34
15634;BME280;14654;48.898;8.308;2023-05-31T04:38:28;100645.31;;;16.11;67.41
15634;BME280;14654;48.898;8.308;2023-05-31T04:40:55;100651.63;;;16.37;66.55
15634;BME280;14654;48.898;8.308;2023-05-31T04:43:22;100642.41;;;16.55;66.59
15634;BME280;14654;48.898;8.308;2023-05-31T04:45:48;100651.81;;;16.63;66.58
15634;BME280;14654;48.898;8.308;2023-05-31T04:48:14;100647.56;;;16.58;66.54
15634;BME280;14654;48.898;8.308;2023-05-31T04:50:40;100654.28;;;16.67;66.12
15634;BME280;14654;48.898;8.308;2023-05-31T04:53:05;100650.75;;;16.68;66.47
15634;BME280;14654;48.898;8.308;2023-05-31T04:55:31;100644.72;;;16.66;66.83
15634;BME280;14654;48.898;8.308;2023-05-31T04:57:56;100643.84;;;16.66;66.61
15634;BME280;14654;48.898;8.308;2023-05-31T05:00:22;100647.19;;;16.71;66.67
15634;BME280;14654;48.898;8.308;2023-05-31T05:02:47;100648.78;;;16.76;66.35
15634;BME280;14654;48.898;8.308;2023-05-31T05:05:12;100652.94;;;16.84;66.52
15634;BME280;14654;48.898;8.308;2023-05-31T05:07:38;100654.03;;;17.06;65.81
15634;BME280;14654;48.898;8.308;2023-05-31T05:10:04;100649.88;;;17.29;65.58
15634;BME280;14654;48.898;8.308;2023-05-31T05:12:29;100657.69;;;17.58;64.88
15634;BME280;14654;48.898;8.308;2023-05-31T05:14:55;100658.88;;;17.47;65.20
15634;BME280;14654;48.898;8.308;2023-05-31T05:17:20;100651.59;;;17.57;64.32
15634;BME280;14654;48.898;8.308;2023-05-31T05:19:46;100656.66;;;17.89;64.05
15634;BME280;14654;48.898;8.308;2023-05-31T05:22:11;100653.06;;;17.93;63.58
15634;BME280;14654;48.898;8.308;2023-05-31T05:24:36;100659.34;;;17.87;63.68
15634;BME280;14654;48.898;8.308;2023-05-31T05:27:02;100652.94;;;17.96;63.45
15634;BME280;14654;48.898;8.308;2023-05-31T05:29:27;100652.00;;;17.98;63.80
15634;BME280;14654;48.898;8.308;2023-05-31T05:31:53;100662.06;;;18.11;63.05
15634;BME280;14654;48.898;8.308;2023-05-31T05:34:18;100662.59;;;18.21;63.26
15634;BME280;14654;48.898;8.308;2023-05-31T05:36:45;100659.00;;;18.23;63.20
15634;BME280;14654;48.898;8.308;2023-05-31T05:39:11;100653.50;;;18.31;62.73
15634;BME280;14654;48.898;8.308;2023-05-31T05:41:36;100648.16;;;18.34;63.48
15634;BME280;14654;48.898;8.308;2023-05-31T05:44:01;100655.50;;;18.73;63.06
15634;BME280;14654;48.898;8.308;2023-05-31T05:46:27;100651.56;;;18.62;62.67
15634;BME280;14654;48.898;8.308;2023-05-31T05:48:54;100662.66;;;18.92;62.68
15634;BME280;14654;48.898;8.308;2023-05-31T05:51:19;100669.16;;;18.82;62.46
15634;BME280;14654;48.898;8.308;2023-05-31T05:53:45;100661.81;;;18.68;62.36
15634;BME280;14654;48.898;8.308;2023-05-31T05:56:10;100672.19;;;18.71;62.71
15634;BME280;14654;48.898;8.308;2023-05-31T05:58:43;100661.81;;;18.92;62.66
15634;BME280;14654;48.898;8.308;2023-05-31T06:01:09;100657.53;;;18.89;62.17
15634;BME280;14654;48.898;8.308;2023-05-31T06:03:37;100664.19;;;19.22;61.86
15634;BME280;14654;48.898;8.308;2023-05-31T06:06:03;100663.00;;;19.30;61.93
15634;BME280;14654;48.898;8.308;2023-05-31T06:08:28;100657.13;;;19.46;61.63
15634;BME280;14654;48.898;8.308;2023-05-31T06:10:53;100657.66;;;19.54;61.31
15634;BME280;14654;48.898;8.308;2023-05-31T06:13:18;100664.34;;;19.84;60.44
15634;BME280;14654;48.898;8.308;2023-05-31T06:15:44;100647.19;;;19.75;61.00
15634;BME280;14654;48.898;8.308;2023-05-31T06:18:09;100655.88;;;19.77;60.95
15634;BME280;14654;48.898;8.308;2023-05-31T06:20:35;100651.19;;;20.06;61.38
15634;BME280;14654;48.898;8.308;2023-05-31T06:23:00;100658.38;;;19.80;59.93
15634;BME280;14654;48.898;8.308;2023-05-31T06:25:26;100656.50;;;19.61;60.63
15634;BME280;14654;48.898;8.308;2023-05-31T06:27:51;100660.03;;;19.60;60.26
15634;BME280;14654;48.898;8.308;2023-05-31T06:30:16;100645.72;;;19.68;60.91
15634;BME280;14654;48.898;8.308;2023-05-31T06:32:42;100652.53;;;19.73;60.48
15634;BME280;14654;48.898;8.308;2023-05-31T06:35:07;100648.91;;;20.19;60.47
15634;BME280;14654;48.898;8.308;2023-05-31T06:37:33;100660.56;;;19.91;60.15
15634;BME280;14654;48.898;8.308;2023-05-31T06:39:59;100649.28;;;19.89;60.38
15634;BME280;14654;48.898;8.308;2023-05-31T06:42:24;100648.63;;;19.82;60.26
15634;BME280;14654;48.898;8.308;2023-05-31T06:44:50;100656.91;;;19.95;60.22
15634;BME280;14654;48.898;8.308;2023-05-31T06:47:15;100649.47;;;20.05;59.54
15634;BME280;14654;48.898;8.308;2023-05-31T06:49:41;100654.19;;;20.17;59.70
15634;BME280;14654;48.898;8.308;2023-05-31T06:52:06;100656.50;;;20.04;59.86
15634;BME280;14654;48.898;8.308;2023-05-31T06:54:36;100640.28;;;20.15;59.99
15634;BME280;14654;48.898;8.308;2023-05-31T06:57:02;100649.19;;;20.32;59.31
15634;BME280;14654;48.898;8.308;2023-05-31T06:59:28;100647.28;;;20.35;59.33
15634;BME280;14654;48.898;8.308;2023-05-31T07:01:53;100641.84;;;20.40;59.21
15634;BME280;14654;48.898;8.308;2023-05-31T07:04:20;100641.88;;;20.59;59.74
15634;BME280;14654;48.898;8.308;2023-05-31T07:06:45;100642.13;;;20.53;59.69
15634;BME280;14654;48.898;8.308;2023-05-31T07:09:10;100648.03;;;20.58;59.09
15634;BME280;14654;48.898;8.308;2023-05-31T07:11:39;100638.72;;;20.51;59.44
15634;BME280;14654;48.898;8.308;2023-05-31T07:14:04;100647.47;;;20.51;59.70
15634;BME280;14654;48.898;8.308;2023-05-31T07:16:30;100636.53;;;20.61;58.94
15634;BME280;14654;48.898;8.308;2023-05-31T07:18:56;100632.63;;;20.69;59.10
15634;BME280;14654;48.898;8.308;2023-05-31T07:21:22;100638.78;;;20.49;58.96
15634;BME280;14654;48.898;8.308;2023-05-31T07:23:48;100641.00;;;20.59;60.08
15634;BME280;14654;48.898;8.308;2023-05-31T07:26:13;100640.19;;;20.77;59.91
15634;BME280;14654;48.898;8.308;2023-05-31T07:28:41;100629.75;;;20.95;59.27
15634;BME280;14654;48.898;8.308;2023-05-31T07:31:06;100632.53;;;21.28;58.55
15634;BME280;14654;48.898;8.308;2023-05-31T07:33:31;100631.31;;;21.36;58.08
15634;BME280;14654;48.898;8.308;2023-05-31T07:36:00;100617.75;;;21.62;58.53
15634;BME280;14654;48.898;8.308;2023-05-31T07:38:26;100631.31;;;21.36;58.51
15634;BME280;14654;48.898;8.308;2023-05-31T07:40:51;100620.56;;;21.40;58.52
15634;BME280;14654;48.898;8.308;2023-05-31T07:43:17;100617.53;;;21.48;58.19
15634;BME280;14654;48.898;8.308;2023-05-31T07:45:49;100615.22;;;21.59;58.91
15634;BME280;14654;48.898;8.308;2023-05-31T07:48:17;100614.66;;;21.35;59.11
15634;BME280;14654;48.898;8.308;2023-05-31T07:50:42;100619.84;;;21.73;58.63
15634;BME280;14654;48.898;8.308;2023-05-31T07:53:08;100613.31;;;21.81;58.71
15634;BME280;14654;48.898;8.308;2023-05-31T07:55:33;100612.25;;;21.67;58.36
15634;BME280;14654;48.898;8.308;2023-05-31T07:57:58;100609.19;;;21.57;58.51
15634;BME280;14654;48.898;8.308;2023-05-31T08:00:23;100612.81;;;21.55;58.53
15634;BME280;14654;48.898;8.308;2023-05-31T08:02:49;100598.91;;;21.70;58.59
15634;BME280;14654;48.898;8.308;2023-05-31T08:05:14;100604.00;;;21.56;58.55
15634;BME280;14654;48.898;8.308;2023-05-31T08:07:39;100607.41;;;21.58;59.60
15634;BME280;14654;48.898;8.308;2023-05-31T08:10:05;100596.94;;;21.56;59.57
15634;BME280;14654;48.898;8.308;2023-05-31T08:12:31;100604.50;;;21.82;59.59
15634;BME280;14654;48.898;8.308;2023-05-31T08:14:56;100601.06;;;21.80;58.38
15634;BME280;14654;48.898;8.308;2023-05-31T08:17:22;100601.41;;;21.73;58.29
15634;BME280;14654;48.898;8.308;2023-05-31T08:19:47;100602.63;;;21.66;58.22
15634;BME280;14654;48.898;8.308;2023-05-31T08:22:12;100617.16;;;21.56;57.49
15634;BME280;14654;48.898;8.308;2023-05-31T08:24:38;100588.41;;;21.34;57.89
15634;BME280;14654;48.898;8.308;2023-05-31T08:27:03;100588.69;;;21.46;57.59
15634;BME280;14654;48.898;8.308;2023-05-31T08:29:29;100604.69;;;21.59;58.20
15634;BME280;14654;48.898;8.308;2023-05-31T08:31:55;100589.31;;;21.69;57.63
15634;BME280;14654;48.898;8.308;2023-05-31T08:34:20;100583.91;;;21.72;57.41
15634;BME280;14654;48.898;8.308;2023-05-31T08:36:46;100576.53;;;21.79;58.05
15634;BME280;14654;48.898;8.308;2023-05-31T08:39:12;100579.72;;;22.02;58.42
15634;BME280;14654;48.898;8.308;2023-05-31T08:42:12;100583.69;;;22.11;57.93
15634;BME280;14654;48.898;8.308;2023-05-31T08:44:40;100584.38;;;22.14;58.94
15634;BME280;14654;48.898;8.308;2023-05-31T08:47:19;100594.63;;;22.03;57.55
15634;BME280;14654;48.898;8.308;2023-05-31T08:49:47;100594.56;;;21.87;57.35
15634;BME280;14654;48.898;8.308;2023-05-31T08:52:13;100587.06;;;21.79;57.40
15634;BME280;14654;48.898;8.308;2023-05-31T08:54:39;100571.66;;;21.71;58.21
15634;BME280;14654;48.898;8.308;2023-05-31T08:57:05;100570.03;;;21.69;57.99
15634;BME280;14654;48.898;8.308;2023-05-31T08:59:30;100590.63;;;21.60;58.32
15634;BME280;14654;48.898;8.308;2023-05-31T09:01:59;100565.50;;;21.71;58.33
15634;BME280;14654;48.898;8.308;2023-05-31T09:04:26;100570.38;;;21.78;58.89
15634;BME280;14654;48.898;8.308;2023-05-31T09:06:51;100577.22;;;21.83;58.21
15634;BME280;14654;48.898;8.308;2023-05-31T09:09:17;100572.09;;;21.80;58.69
15634;BME280;14654;48.898;8.308;2023-05-31T09:11:44;100568.31;;;21.85;58.40
15634;BME280;14654;48.898;8.308;2023-05-31T09:14:10;100565.75;;;21.84;58.36
15634;BME280;14654;48.898;8.308;2023-05-31T09:16:35;100554.56;;;21.96;58.78
15634;BME280;14654;48.898;8.308;2023-05-31T09:19:05;100548.81;;;22.05;58.28
15634;BME280;14654;48.898;8.308;2023-05-31T09:21:41;100557.09;;;22.15;57.89
15634;BME280;14654;48.898;8.308;2023-05-31T09:24:07;100562.91;;;22.22;58.72
15634;BME280;14654;48.898;8.308;2023-05-31T09:26:33;100552.16;;;22.25;57.37
15634;BME280;14654;48.898;8.308;2023-05-31T09:28:59;100555.56;;;22.27;56.67
15634;BME280;14654;48.898;8.308;2023-05-31T09:31:25;100542.91;;;22.34;57.34
15634;BME280;14654;48.898;8.308;2023-05-31T09:33:52;100553.06;;;22.42;57.10
15634;BME280;14654;48.898;8.308;2023-05-31T09:36:27;100541.59;;;22.59;57.94
15634;BME280;14654;48.898;8.308;2023-05-31T09:39:00;100543.13;;;22.63;57.35
15634;BME280;14654;48.898;8.308;2023-05-31T09:41:27;100540.06;;;22.71;57.14
15634;BME280;14654;48.898;8.308;2023-05-31T09:43:52;100554.53;;;22.63;57.59
15634;BME280;14654;48.898;8.308;2023-05-31T09:46:19;100544.31;;;22.57;57.24
15634;BME280;14654;48.898;8.308;2023-05-31T09:48:56;100540.47;;;22.63;56.95
15634;BME280;14654;48.898;8.308;2023-05-31T09:51:22;100538.03;;;22.60;56.37
15634;BME280;14654;48.898;8.308;2023-05-31T09:53:47;100536.06;;;22.63;57.65
15634;BME280;14654;48.898;8.308;2023-05-31T09:56:18;100528.81;;;22.67;56.78
15634;BME280;14654;48.898;8.308;2023-05-31T09:58:43;100541.41;;;22.62;57.56
15634;BME280;14654;48.898;8.308;2023-05-31T10:01:09;100532.06;;;22.72;57.11
15634;BME280;14654;48.898;8.308;2023-05-31T10:03:35;100531.03;;;22.75;57.27
15634;BME280;14654;48.898;8.308;2023-05-31T10:06:01;100524.56;;;22.80;58.09
15634;BME280;14654;48.898;8.308;2023-05-31T10:08:26;100529.25;;;22.91;58.34
15634;BME280;14654;48.898;8.308;2023-05-31T10:10:54;100527.00;;;22.99;58.33
15634;BME280;14654;48.898;8.308;2023-05-31T10:13:22;100524.06;;;22.90;57.95
15634;BME280;14654;48.898;8.308;2023-05-31T10:15:50;100530.16;;;22.90;58.08
15634;BME280;14654;48.898;8.308;2023-05-31T10:18:20;100513.75;;;22.85;58.11
15634;BME280;14654;48.898;8.308;2023-05-31T10:21:16;100534.94;;;22.83;58.17
15634;BME280;14654;48.898;8.308;2023-05-31T10:23:53;100520.56;;;22.89;58.59
15634;BME280;14654;48.898;8.308;2023-05-31T10:26:22;100528.97;;;22.96;57.72
15634;BME280;14654;48.898;8.308;2023-05-31T10:31:22;100512.19;;;22.97;57.22
15634;BME280;14654;48.898;8.308;2023-05-31T10:33:51;100510.16;;;23.02;58.39
15634;BME280;14654;48.898;8.308;2023-05-31T10:36:18;100506.03;;;23.12;56.81
15634;BME280;14654;48.898;8.308;2023-05-31T10:38:56;100513.09;;;23.28;56.98
15634;BME280;14654;48.898;8.308;2023-05-31T10:41:28;100507.03;;;23.26;55.83
15634;BME280;14654;48.898;8.308;2023-05-31T10:44:03;100500.81;;;23.27;55.44
15634;BME280;14654;48.898;8.308;2023-05-31T10:46:32;100516.97;;;23.37;56.29
15634;BME280;14654;48.898;8.308;2023-05-31T10:48:59;100503.41;;;23.43;55.59
15634;BME280;14654;48.898;8.308;2023-05-31T10:51:41;100507.78;;;23.58;53.84
15634;BME280;14654;48.898;8.308;2023-05-31T10:54:07;100505.22;;;23.57;53.68
15634;BME280;14654;48.898;8.308;2023-05-31T10:56:32;100491.63;;;23.49;53.93
15634;BME280;14654;48.898;8.308;2023-05-31T10:58:58;100489.53;;;23.54;54.34
15634;BME280;14654;48.898;8.308;2023-05-31T11:01:28;100495.59;;;23.56;54.52
15634;BME280;14654;48.898;8.308;2023-05-31T11:03:54;100496.47;;;23.56;54.01
15634;BME280;14654;48.898;8.308;2023-05-31T11:06:27;100501.63;;;23.58;54.62
15634;BME280;14654;48.898;8.308;2023-05-31T11:09:09;100486.19;;;23.66;54.10
15634;BME280;14654;48.898;8.308;2023-05-31T11:14:09;100479.75;;;23.85;54.92
15634;BME280;14654;48.898;8.308;2023-05-31T11:19:16;100494.38;;;23.76;53.46
15634;BME280;14654;48.898;8.308;2023-05-31T11:22:08;100482.03;;;23.77;53.88
15634;BME280;14654;48.898;8.308;2023-05-31T11:24:47;100478.03;;;23.69;53.32
15634;BME280;14654;48.898;8.308;2023-05-31T11:27:17;100494.19;;;23.65;53.16
15634;BME280;14654;48.898;8.308;2023-05-31T11:35:04;100474.56;;;23.69;52.69
15634;BME280;14654;48.898;8.308;2023-05-31T11:37:31;100474.16;;;23.75;53.54
15634;BME280;14654;48.898;8.308;2023-05-31T11:40:01;100474.28;;;23.88;53.74
15634;BME280;14654;48.898;8.308;2023-05-31T11:42:30;100469.84;;;23.88;52.09
15634;BME280;14654;48.898;8.308;2023-05-31T11:44:56;100470.13;;;23.98;53.16
15634;BME280;14654;48.898;8.308;2023-05-31T11:47:25;100503.38;;;24.02;52.20
15634;BME280;14654;48.898;8.308;2023-05-31T11:49:51;100485.34;;;24.09;52.04
15634;BME280;14654;48.898;8.308;2023-05-31T11:52:18;100464.09;;;24.11;51.01
15634;BME280;14654;48.898;8.308;2023-05-31T11:54:45;100464.66;;;24.16;51.94
15634;BME280;14654;48.898;8.308;2023-05-31T11:57:11;100454.56;;;24.08;51.74
15634;BME280;14654;48.898;8.308;2023-05-31T11:59:38;100460.09;;;24.18;53.02
15634;BME280;14654;48.898;8.308;2023-05-31T12:02:06;100458.53;;;24.15;52.06
15634;BME280;14654;48.898;8.308;2023-05-31T12:04:36;100452.56;;;24.26;52.79
15634;BME280;14654;48.898;8.308;2023-05-31T12:07:03;100454.00;;;24.17;51.31
15634;BME280;14654;48.898;8.308;2023-05-31T12:09:29;100445.88;;;24.06;51.24
15634;BME280;14654;48.898;8.308;2023-05-31T12:11:55;100444.28;;;24.03;51.54
15634;BME280;14654;48.898;8.308;2023-05-31T12:14:24;100454.38;;;24.11;52.23
15634;BME280;14654;48.898;8.308;2023-05-31T12:16:53;100440.84;;;24.16;52.24
15634;BME280;14654;48.898;8.308;2023-05-31T12:19:19;100449.16;;;24.24;51.62
15634;BME280;14654;48.898;8.308;2023-05-31T12:21:45;100446.97;;;24.31;50.60
15634;BME280;14654;48.898;8.308;2023-05-31T12:24:15;100436.38;;;24.31;51.29
15634;BME280;14654;48.898;8.308;2023-05-31T12:26:44;100435.78;;;24.40;51.77
15634;BME280;14654;48.898;8.308;2023-05-31T12:29:13;100448.16;;;24.40;52.59
15634;BME280;14654;48.898;8.308;2023-05-31T12:31:39;100425.69;;;24.32;51.77
15634;BME280;14654;48.898;8.308;2023-05-31T12:36:56;100428.00;;;24.24;50.50
15634;BME280;14654;48.898;8.308;2023-05-31T12:39:23;100433.09;;;24.27;50.83
15634;BME280;14654;48.898;8.308;2023-05-31T12:41:52;100423.47;;;24.26;50.25
15634;BME280;14654;48.898;8.308;2023-05-31T12:44:20;100415.22;;;24.31;50.29
15634;BME280;14654;48.898;8.308;2023-05-31T12:46:47;100415.13;;;24.32;51.15
15634;BME280;14654;48.898;8.308;2023-05-31T12:49:18;100427.97;;;24.39;51.90
15634;BME280;14654;48.898;8.308;2023-05-31T12:51:43;100422.16;;;24.46;50.19
15634;BME280;14654;48.898;8.308;2023-05-31T12:54:13;100413.28;;;24.47;49.65
15634;BME280;14654;48.898;8.308;2023-05-31T12:56:40;100424.31;;;24.54;50.11
15634;BME280;14654;48.898;8.308;2023-05-31T12:59:06;100418.91;;;24.56;50.05
15634;BME280;14654;48.898;8.308;2023-05-31T13:01:31;100410.34;;;24.52;49.37
15634;BME280;14654;48.898;8.308;2023-05-31T13:03:57;100415.63;;;24.52;50.51
15634;BME280;14654;48.898;8.308;2023-05-31T13:06:23;100416.81;;;24.61;51.83